sensor_id;sensor_type;location;lat;lon;timestamp;temperature;humidity
66835;HTU21D;53743;51.100;5.874;2022-10-16T00:01:05;15.44;98.47
66835;HTU21D;53743;51.100;5.874;2022-10-16T00:02:11;15.43;98.45
66835;HTU21D;53743;51.100;5.874;2022-10-16T00:03:12;15.45;98.30
66835;HTU21D;53743;51.100;5.874;2022-10-16T00:04:13;15.44;98.29
66835;HTU21D;53743;51.100;5.874;2022-10-16T00:05:14;15.45;98.22
66835;HTU21D;53743;51.100;5.874;2022-10-16T00:06:17;15.47;97.90
66835;HTU21D;53743;51.100;5.874;2022-10-16T00:07:19;15.45;97.93
66835;HTU21D;53743;51.100;5.874;2022-10-16T00:08:20;15.43;98.02
66835;HTU21D;53743;51.100;5.874;2022-10-16T00:09:20;15.41;97.89
66835;HTU21D;53743;51.100;5.874;2022-10-16T00:10:22;15.41;97.93
66835;HTU21D;53743;51.100;5.874;2022-10-16T00:11:29;15.43;98.06
66835;HTU21D;53743;51.100;5.874;2022-10-16T00:12:33;15.44;97.88
66835;HTU21D;53743;51.100;5.874;2022-10-16T00:13:36;15.48;97.26
66835;HTU21D;53743;51.100;5.874;2022-10-16T00:14:38;15.46;97.32
66835;HTU21D;53743;51.100;5.874;2022-10-16T00:15:42;15.46;97.42
66835;HTU21D;53743;51.100;5.874;2022-10-16T00:16:44;15.44;97.12
66835;HTU21D;53743;51.100;5.874;2022-10-16T00:17:44;15.45;97.39
66835;HTU21D;53743;51.100;5.874;2022-10-16T00:18:45;15.44;97.29
66835;HTU21D;53743;51.100;5.874;2022-10-16T00:19:46;15.45;97.39
66835;HTU21D;53743;51.100;5.874;2022-10-16T00:20:47;15.45;97.26
66835;HTU21D;53743;51.100;5.874;2022-10-16T00:21:48;15.45;97.25
66835;HTU21D;53743;51.100;5.874;2022-10-16T00:22:48;15.44;97.27
66835;HTU21D;53743;51.100;5.874;2022-10-16T00:23:55;15.45;97.30
66835;HTU21D;53743;51.100;5.874;2022-10-16T00:24:59;15.45;97.23
66835;HTU21D;53743;51.100;5.874;2022-10-16T00:26:06;15.45;97.27
66835;HTU21D;53743;51.100;5.874;2022-10-16T00:27:09;15.44;97.19
66835;HTU21D;53743;51.100;5.874;2022-10-16T00:28:10;15.44;97.23
66835;HTU21D;53743;51.100;5.874;2022-10-16T00:29:11;15.44;97.27
66835;HTU21D;53743;51.100;5.874;2022-10-16T00:30:12;15.44;97.13
66835;HTU21D;53743;51.100;5.874;2022-10-16T00:31:12;15.44;97.02
66835;HTU21D;53743;51.100;5.874;2022-10-16T00:32:13;15.44;96.77
66835;HTU21D;53743;51.100;5.874;2022-10-16T00:33:14;15.43;96.98
66835;HTU21D;53743;51.100;5.874;2022-10-16T00:34:15;15.43;96.87
66835;HTU21D;53743;51.100;5.874;2022-10-16T00:35:15;15.39;97.00
66835;HTU21D;53743;51.100;5.874;2022-10-16T00:36:19;15.39;97.03
66835;HTU21D;53743;51.100;5.874;2022-10-16T00:37:21;15.37;97.08
66835;HTU21D;53743;51.100;5.874;2022-10-16T00:38:22;15.39;97.10
66835;HTU21D;53743;51.100;5.874;2022-10-16T00:39:23;15.37;97.09
66835;HTU21D;53743;51.100;5.874;2022-10-16T00:40:25;15.38;97.02
66835;HTU21D;53743;51.100;5.874;2022-10-16T00:41:26;15.37;96.99
66835;HTU21D;53743;51.100;5.874;2022-10-16T00:42:28;15.36;96.94
66835;HTU21D;53743;51.100;5.874;2022-10-16T00:43:40;15.34;97.05
66835;HTU21D;53743;51.100;5.874;2022-10-16T00:44:57;15.34;96.99
66835;HTU21D;53743;51.100;5.874;2022-10-16T00:45:58;15.33;97.00
66835;HTU21D;53743;51.100;5.874;2022-10-16T00:47:04;15.33;97.07
66835;HTU21D;53743;51.100;5.874;2022-10-16T00:48:11;15.33;97.12
66835;HTU21D;53743;51.100;5.874;2022-10-16T00:49:19;15.32;97.07
66835;HTU21D;53743;51.100;5.874;2022-10-16T00:50:29;15.31;97.10
66835;HTU21D;53743;51.100;5.874;2022-10-16T00:51:40;15.31;97.20
66835;HTU21D;53743;51.100;5.874;2022-10-16T00:52:47;15.30;97.07
66835;HTU21D;53743;51.100;5.874;2022-10-16T00:53:50;15.31;97.07
66835;HTU21D;53743;51.100;5.874;2022-10-16T00:54:53;15.32;97.05
66835;HTU21D;53743;51.100;5.874;2022-10-16T00:55:55;15.31;96.97
66835;HTU21D;53743;51.100;5.874;2022-10-16T00:57:01;15.31;96.87
66835;HTU21D;53743;51.100;5.874;2022-10-16T00:58:04;15.31;96.91
66835;HTU21D;53743;51.100;5.874;2022-10-16T00:59:14;15.31;96.85
66835;HTU21D;53743;51.100;5.874;2022-10-16T01:00:21;15.32;96.89
66835;HTU21D;53743;51.100;5.874;2022-10-16T01:01:25;15.31;96.86
66835;HTU21D;53743;51.100;5.874;2022-10-16T01:02:25;15.31;96.83
66835;HTU21D;53743;51.100;5.874;2022-10-16T01:03:32;15.32;96.97
66835;HTU21D;53743;51.100;5.874;2022-10-16T01:04:42;15.32;96.93
66835;HTU21D;53743;51.100;5.874;2022-10-16T01:06:09;15.31;96.91
66835;HTU21D;53743;51.100;5.874;2022-10-16T01:10:39;15.28;97.05
66835;HTU21D;53743;51.100;5.874;2022-10-16T01:11:57;15.29;97.03
66835;HTU21D;53743;51.100;5.874;2022-10-16T01:13:24;15.29;97.01
66835;HTU21D;53743;51.100;5.874;2022-10-16T01:15:55;15.25;97.02
66835;HTU21D;53743;51.100;5.874;2022-10-16T01:17:12;15.24;97.20
66835;HTU21D;53743;51.100;5.874;2022-10-16T01:18:28;15.22;97.24
66835;HTU21D;53743;51.100;5.874;2022-10-16T01:19:57;15.21;97.31
66835;HTU21D;53743;51.100;5.874;2022-10-16T01:21:25;15.19;97.26
66835;HTU21D;53743;51.100;5.874;2022-10-16T01:22:42;15.19;97.13
66835;HTU21D;53743;51.100;5.874;2022-10-16T01:24:01;15.18;97.24
66835;HTU21D;53743;51.100;5.874;2022-10-16T01:28:46;15.12;97.21
66835;HTU21D;53743;51.100;5.874;2022-10-16T01:31:15;15.10;97.20
66835;HTU21D;53743;51.100;5.874;2022-10-16T01:32:56;15.07;97.12
66835;HTU21D;53743;51.100;5.874;2022-10-16T01:34:21;15.02;97.39
66835;HTU21D;53743;51.100;5.874;2022-10-16T01:35:56;15.01;97.42
66835;HTU21D;53743;51.100;5.874;2022-10-16T01:37:11;14.97;97.45
66835;HTU21D;53743;51.100;5.874;2022-10-16T01:38:21;14.95;97.55
66835;HTU21D;53743;51.100;5.874;2022-10-16T01:39:34;14.96;97.50
66835;HTU21D;53743;51.100;5.874;2022-10-16T01:40:44;14.94;97.72
66835;HTU21D;53743;51.100;5.874;2022-10-16T01:41:58;14.92;97.71
66835;HTU21D;53743;51.100;5.874;2022-10-16T01:43:15;14.89;97.83
66835;HTU21D;53743;51.100;5.874;2022-10-16T01:44:27;14.88;97.88
66835;HTU21D;53743;51.100;5.874;2022-10-16T01:45:32;14.89;0.00
66835;HTU21D;53743;51.100;5.874;2022-10-16T01:46:39;14.88;97.81
66835;HTU21D;53743;51.100;5.874;2022-10-16T01:47:43;14.87;97.88
66835;HTU21D;53743;51.100;5.874;2022-10-16T01:48:46;14.86;97.81
66835;HTU21D;53743;51.100;5.874;2022-10-16T01:49:52;14.87;97.81
66835;HTU21D;53743;51.100;5.874;2022-10-16T01:51:01;14.85;97.87
66835;HTU21D;53743;51.100;5.874;2022-10-16T01:52:15;14.84;97.78
66835;HTU21D;53743;51.100;5.874;2022-10-16T01:53:23;14.82;97.97
66835;HTU21D;53743;51.100;5.874;2022-10-16T01:54:32;14.82;97.84
66835;HTU21D;53743;51.100;5.874;2022-10-16T01:55:39;14.81;97.86
66835;HTU21D;53743;51.100;5.874;2022-10-16T01:56:47;14.80;97.86
66835;HTU21D;53743;51.100;5.874;2022-10-16T01:57:51;14.79;97.88
66835;HTU21D;53743;51.100;5.874;2022-10-16T01:59:03;14.79;97.95
66835;HTU21D;53743;51.100;5.874;2022-10-16T02:00:11;14.79;98.25
66835;HTU21D;53743;51.100;5.874;2022-10-16T02:01:18;14.78;98.11
66835;HTU21D;53743;51.100;5.874;2022-10-16T02:02:22;14.78;98.13
66835;HTU21D;53743;51.100;5.874;2022-10-16T02:03:27;14.77;98.20
66835;HTU21D;53743;51.100;5.874;2022-10-16T02:06:24;14.78;98.29
66835;HTU21D;53743;51.100;5.874;2022-10-16T02:07:26;14.77;98.20
66835;HTU21D;53743;51.100;5.874;2022-10-16T02:08:29;14.78;98.26
66835;HTU21D;53743;51.100;5.874;2022-10-16T02:09:34;14.79;98.30
66835;HTU21D;53743;51.100;5.874;2022-10-16T02:10:37;14.81;98.34
66835;HTU21D;53743;51.100;5.874;2022-10-16T02:11:39;14.83;98.38
66835;HTU21D;53743;51.100;5.874;2022-10-16T02:13:28;14.83;98.27
66835;HTU21D;53743;51.100;5.874;2022-10-16T02:14:11;14.85;98.19
66835;HTU21D;53743;51.100;5.874;2022-10-16T02:15:12;14.85;98.31
66835;HTU21D;53743;51.100;5.874;2022-10-16T02:16:13;14.86;98.16
66835;HTU21D;53743;51.100;5.874;2022-10-16T02:17:16;14.88;98.07
66835;HTU21D;53743;51.100;5.874;2022-10-16T02:18:18;14.87;98.10
66835;HTU21D;53743;51.100;5.874;2022-10-16T02:19:21;14.86;98.22
66835;HTU21D;53743;51.100;5.874;2022-10-16T02:20:28;14.87;98.06
66835;HTU21D;53743;51.100;5.874;2022-10-16T02:21:57;14.88;98.00
66835;HTU21D;53743;51.100;5.874;2022-10-16T02:23:01;14.86;98.04
66835;HTU21D;53743;51.100;5.874;2022-10-16T02:25:44;14.88;97.97
66835;HTU21D;53743;51.100;5.874;2022-10-16T02:27:11;14.88;98.03
66835;HTU21D;53743;51.100;5.874;2022-10-16T02:28:24;14.88;97.93
66835;HTU21D;53743;51.100;5.874;2022-10-16T02:29:41;14.87;98.20
66835;HTU21D;53743;51.100;5.874;2022-10-16T02:30:54;14.88;97.96
66835;HTU21D;53743;51.100;5.874;2022-10-16T02:32:23;14.88;98.06
66835;HTU21D;53743;51.100;5.874;2022-10-16T02:33:30;14.88;98.15
66835;HTU21D;53743;51.100;5.874;2022-10-16T02:34:35;14.88;98.08
66835;HTU21D;53743;51.100;5.874;2022-10-16T02:35:38;14.88;98.11
66835;HTU21D;53743;51.100;5.874;2022-10-16T02:36:42;14.88;98.12
66835;HTU21D;53743;51.100;5.874;2022-10-16T02:37:46;14.88;98.01
66835;HTU21D;53743;51.100;5.874;2022-10-16T02:38:50;14.87;98.22
66835;HTU21D;53743;51.100;5.874;2022-10-16T02:39:54;14.86;98.23
66835;HTU21D;53743;51.100;5.874;2022-10-16T02:40:57;14.87;98.27
66835;HTU21D;53743;51.100;5.874;2022-10-16T02:41:58;14.86;98.22
66835;HTU21D;53743;51.100;5.874;2022-10-16T02:42:59;14.87;98.19
66835;HTU21D;53743;51.100;5.874;2022-10-16T02:44:00;14.88;98.25
66835;HTU21D;53743;51.100;5.874;2022-10-16T02:45:00;14.88;98.19
66835;HTU21D;53743;51.100;5.874;2022-10-16T02:46:02;14.89;98.24
66835;HTU21D;53743;51.100;5.874;2022-10-16T02:47:03;14.91;98.19
66835;HTU21D;53743;51.100;5.874;2022-10-16T02:48:04;14.89;98.26
66835;HTU21D;53743;51.100;5.874;2022-10-16T02:49:05;14.88;98.41
66835;HTU21D;53743;51.100;5.874;2022-10-16T02:50:06;14.88;98.32
66835;HTU21D;53743;51.100;5.874;2022-10-16T02:51:06;14.92;98.29
66835;HTU21D;53743;51.100;5.874;2022-10-16T02:52:07;14.89;98.48
66835;HTU21D;53743;51.100;5.874;2022-10-16T02:53:08;14.91;98.35
66835;HTU21D;53743;51.100;5.874;2022-10-16T02:54:08;14.91;98.32
66835;HTU21D;53743;51.100;5.874;2022-10-16T02:55:09;14.92;98.43
66835;HTU21D;53743;51.100;5.874;2022-10-16T02:56:10;14.93;98.35
66835;HTU21D;53743;51.100;5.874;2022-10-16T02:57:10;14.94;98.42
66835;HTU21D;53743;51.100;5.874;2022-10-16T02:58:12;14.93;98.45
66835;HTU21D;53743;51.100;5.874;2022-10-16T02:59:12;14.94;98.38
66835;HTU21D;53743;51.100;5.874;2022-10-16T03:00:16;14.93;98.40
66835;HTU21D;53743;51.100;5.874;2022-10-16T03:01:17;14.93;98.31
66835;HTU21D;53743;51.100;5.874;2022-10-16T03:02:18;14.93;98.36
66835;HTU21D;53743;51.100;5.874;2022-10-16T03:03:19;14.93;98.39
66835;HTU21D;53743;51.100;5.874;2022-10-16T03:04:20;14.94;98.31
66835;HTU21D;53743;51.100;5.874;2022-10-16T03:05:20;14.95;98.40
66835;HTU21D;53743;51.100;5.874;2022-10-16T03:06:21;14.93;98.36
66835;HTU21D;53743;51.100;5.874;2022-10-16T03:07:22;14.94;98.36
66835;HTU21D;53743;51.100;5.874;2022-10-16T03:08:22;14.95;98.38
66835;HTU21D;53743;51.100;5.874;2022-10-16T03:09:25;14.94;98.29
66835;HTU21D;53743;51.100;5.874;2022-10-16T03:10:26;14.95;98.29
66835;HTU21D;53743;51.100;5.874;2022-10-16T03:11:27;14.97;98.26
66835;HTU21D;53743;51.100;5.874;2022-10-16T03:12:29;14.98;98.18
66835;HTU21D;53743;51.100;5.874;2022-10-16T03:13:29;14.98;98.25
66835;HTU21D;53743;51.100;5.874;2022-10-16T03:14:30;14.97;98.27
66835;HTU21D;53743;51.100;5.874;2022-10-16T03:15:31;14.98;98.24
66835;HTU21D;53743;51.100;5.874;2022-10-16T03:16:31;14.98;98.20
66835;HTU21D;53743;51.100;5.874;2022-10-16T03:17:32;14.99;98.16
66835;HTU21D;53743;51.100;5.874;2022-10-16T03:18:33;15.00;97.99
66835;HTU21D;53743;51.100;5.874;2022-10-16T03:19:34;14.99;98.10
66835;HTU21D;53743;51.100;5.874;2022-10-16T03:20:36;14.99;98.06
66835;HTU21D;53743;51.100;5.874;2022-10-16T03:21:36;15.00;98.00
66835;HTU21D;53743;51.100;5.874;2022-10-16T03:22:37;14.98;97.91
66835;HTU21D;53743;51.100;5.874;2022-10-16T03:23:38;14.93;98.03
66835;HTU21D;53743;51.100;5.874;2022-10-16T03:24:38;14.92;98.14
66835;HTU21D;53743;51.100;5.874;2022-10-16T03:25:39;14.91;98.18
66835;HTU21D;53743;51.100;5.874;2022-10-16T03:26:40;14.92;97.91
66835;HTU21D;53743;51.100;5.874;2022-10-16T03:27:40;14.92;97.94
66835;HTU21D;53743;51.100;5.874;2022-10-16T03:28:41;14.89;97.99
66835;HTU21D;53743;51.100;5.874;2022-10-16T03:29:41;14.88;97.89
66835;HTU21D;53743;51.100;5.874;2022-10-16T03:30:43;14.86;98.03
66835;HTU21D;53743;51.100;5.874;2022-10-16T03:31:44;14.85;98.06
66835;HTU21D;53743;51.100;5.874;2022-10-16T03:32:45;14.83;98.09
66835;HTU21D;53743;51.100;5.874;2022-10-16T03:33:45;14.81;98.17
66835;HTU21D;53743;51.100;5.874;2022-10-16T03:34:46;14.80;98.13
66835;HTU21D;53743;51.100;5.874;2022-10-16T03:35:51;14.79;98.12
66835;HTU21D;53743;51.100;5.874;2022-10-16T03:36:53;14.75;98.32
66835;HTU21D;53743;51.100;5.874;2022-10-16T03:37:54;14.74;98.29
66835;HTU21D;53743;51.100;5.874;2022-10-16T03:38:55;14.73;98.34
66835;HTU21D;53743;51.100;5.874;2022-10-16T03:39:55;14.72;98.26
66835;HTU21D;53743;51.100;5.874;2022-10-16T03:40:56;14.74;98.11
66835;HTU21D;53743;51.100;5.874;2022-10-16T03:41:57;14.74;98.26
66835;HTU21D;53743;51.100;5.874;2022-10-16T03:42:58;14.73;98.10
66835;HTU21D;53743;51.100;5.874;2022-10-16T03:43:59;14.71;98.21
66835;HTU21D;53743;51.100;5.874;2022-10-16T03:44:59;14.70;98.25
66835;HTU21D;53743;51.100;5.874;2022-10-16T03:46:00;14.69;98.38
66835;HTU21D;53743;51.100;5.874;2022-10-16T03:47:01;14.69;98.52
66835;HTU21D;53743;51.100;5.874;2022-10-16T03:48:01;14.67;98.54
66835;HTU21D;53743;51.100;5.874;2022-10-16T03:49:03;14.66;98.64
66835;HTU21D;53743;51.100;5.874;2022-10-16T03:50:04;14.65;98.67
66835;HTU21D;53743;51.100;5.874;2022-10-16T03:51:06;14.65;98.73
66835;HTU21D;53743;51.100;5.874;2022-10-16T03:52:06;14.65;98.64
66835;HTU21D;53743;51.100;5.874;2022-10-16T03:53:07;14.63;98.68
66835;HTU21D;53743;51.100;5.874;2022-10-16T03:54:09;14.65;98.63
66835;HTU21D;53743;51.100;5.874;2022-10-16T03:55:10;14.63;98.61
66835;HTU21D;53743;51.100;5.874;2022-10-16T03:56:10;14.62;98.69
66835;HTU21D;53743;51.100;5.874;2022-10-16T03:57:11;14.59;98.77
66835;HTU21D;53743;51.100;5.874;2022-10-16T03:58:12;14.59;98.70
66835;HTU21D;53743;51.100;5.874;2022-10-16T03:59:12;14.57;98.74
66835;HTU21D;53743;51.100;5.874;2022-10-16T04:00:13;14.57;98.65
66835;HTU21D;53743;51.100;5.874;2022-10-16T04:01:14;14.56;98.77
66835;HTU21D;53743;51.100;5.874;2022-10-16T04:02:15;14.55;98.75
66835;HTU21D;53743;51.100;5.874;2022-10-16T04:03:16;14.55;98.87
66835;HTU21D;53743;51.100;5.874;2022-10-16T04:04:17;14.54;98.87
66835;HTU21D;53743;51.100;5.874;2022-10-16T04:05:18;14.55;98.84
66835;HTU21D;53743;51.100;5.874;2022-10-16T04:06:19;14.53;98.77
66835;HTU21D;53743;51.100;5.874;2022-10-16T04:07:20;14.53;98.71
66835;HTU21D;53743;51.100;5.874;2022-10-16T04:08:21;14.51;98.72
66835;HTU21D;53743;51.100;5.874;2022-10-16T04:09:22;14.49;98.87
66835;HTU21D;53743;51.100;5.874;2022-10-16T04:10:22;14.48;98.96
66835;HTU21D;53743;51.100;5.874;2022-10-16T04:11:23;14.47;98.97
66835;HTU21D;53743;51.100;5.874;2022-10-16T04:12:24;14.45;98.93
66835;HTU21D;53743;51.100;5.874;2022-10-16T04:13:25;14.44;99.06
66835;HTU21D;53743;51.100;5.874;2022-10-16T04:14:26;14.44;99.00
66835;HTU21D;53743;51.100;5.874;2022-10-16T04:15:26;14.44;99.06
66835;HTU21D;53743;51.100;5.874;2022-10-16T04:16:27;14.43;99.01
66835;HTU21D;53743;51.100;5.874;2022-10-16T04:17:28;14.42;99.08
66835;HTU21D;53743;51.100;5.874;2022-10-16T04:18:28;14.41;99.06
66835;HTU21D;53743;51.100;5.874;2022-10-16T04:19:29;14.41;99.14
66835;HTU21D;53743;51.100;5.874;2022-10-16T04:20:30;14.40;99.22
66835;HTU21D;53743;51.100;5.874;2022-10-16T04:21:30;14.40;99.07
66835;HTU21D;53743;51.100;5.874;2022-10-16T04:22:31;14.40;99.21
66835;HTU21D;53743;51.100;5.874;2022-10-16T04:23:32;14.41;99.26
66835;HTU21D;53743;51.100;5.874;2022-10-16T04:24:33;14.42;99.34
66835;HTU21D;53743;51.100;5.874;2022-10-16T04:25:34;14.42;99.31
66835;HTU21D;53743;51.100;5.874;2022-10-16T04:26:34;14.42;99.36
66835;HTU21D;53743;51.100;5.874;2022-10-16T04:27:35;14.42;99.43
66835;HTU21D;53743;51.100;5.874;2022-10-16T04:28:36;14.43;99.43
66835;HTU21D;53743;51.100;5.874;2022-10-16T04:29:36;14.43;99.31
66835;HTU21D;53743;51.100;5.874;2022-10-16T04:30:38;14.42;99.36
66835;HTU21D;53743;51.100;5.874;2022-10-16T04:31:39;14.43;99.45
66835;HTU21D;53743;51.100;5.874;2022-10-16T04:32:41;14.42;99.42
66835;HTU21D;53743;51.100;5.874;2022-10-16T04:33:44;14.41;99.32
66835;HTU21D;53743;51.100;5.874;2022-10-16T04:34:45;14.42;99.36
66835;HTU21D;53743;51.100;5.874;2022-10-16T04:35:46;14.41;99.42
66835;HTU21D;53743;51.100;5.874;2022-10-16T04:36:48;14.40;99.51
66835;HTU21D;53743;51.100;5.874;2022-10-16T04:37:49;14.39;99.42
66835;HTU21D;53743;51.100;5.874;2022-10-16T04:38:50;14.39;99.37
66835;HTU21D;53743;51.100;5.874;2022-10-16T04:39:52;14.39;99.43
66835;HTU21D;53743;51.100;5.874;2022-10-16T04:40:53;14.39;99.54
66835;HTU21D;53743;51.100;5.874;2022-10-16T04:41:54;14.41;99.58
66835;HTU21D;53743;51.100;5.874;2022-10-16T04:42:54;14.40;99.64
66835;HTU21D;53743;51.100;5.874;2022-10-16T04:43:55;14.41;99.68
66835;HTU21D;53743;51.100;5.874;2022-10-16T04:44:56;14.42;99.69
66835;HTU21D;53743;51.100;5.874;2022-10-16T04:45:57;14.43;99.71
66835;HTU21D;53743;51.100;5.874;2022-10-16T04:46:57;14.42;99.64
66835;HTU21D;53743;51.100;5.874;2022-10-16T04:47:59;14.44;99.65
66835;HTU21D;53743;51.100;5.874;2022-10-16T04:49:00;14.44;99.58
66835;HTU21D;53743;51.100;5.874;2022-10-16T04:50:01;14.45;99.69
66835;HTU21D;53743;51.100;5.874;2022-10-16T04:51:02;14.45;99.86
66835;HTU21D;53743;51.100;5.874;2022-10-16T04:52:03;14.48;99.77
66835;HTU21D;53743;51.100;5.874;2022-10-16T04:53:05;14.49;99.67
66835;HTU21D;53743;51.100;5.874;2022-10-16T04:54:08;14.48;99.74
66835;HTU21D;53743;51.100;5.874;2022-10-16T04:55:09;14.49;99.74
66835;HTU21D;53743;51.100;5.874;2022-10-16T04:56:10;14.49;99.66
66835;HTU21D;53743;51.100;5.874;2022-10-16T04:57:11;14.51;99.71
66835;HTU21D;53743;51.100;5.874;2022-10-16T04:58:11;14.50;99.64
66835;HTU21D;53743;51.100;5.874;2022-10-16T04:59:15;14.49;99.66
66835;HTU21D;53743;51.100;5.874;2022-10-16T05:00:15;14.49;99.62
66835;HTU21D;53743;51.100;5.874;2022-10-16T05:01:16;14.50;99.67
66835;HTU21D;53743;51.100;5.874;2022-10-16T05:02:17;14.49;99.69
66835;HTU21D;53743;51.100;5.874;2022-10-16T05:03:18;14.50;99.74
66835;HTU21D;53743;51.100;5.874;2022-10-16T05:04:18;14.49;99.70
66835;HTU21D;53743;51.100;5.874;2022-10-16T05:05:19;14.50;99.72
66835;HTU21D;53743;51.100;5.874;2022-10-16T05:06:20;14.50;99.72
66835;HTU21D;53743;51.100;5.874;2022-10-16T05:07:20;14.50;99.69
66835;HTU21D;53743;51.100;5.874;2022-10-16T05:08:21;14.50;99.67
66835;HTU21D;53743;51.100;5.874;2022-10-16T05:09:22;14.50;99.61
66835;HTU21D;53743;51.100;5.874;2022-10-16T05:10:23;14.49;99.79
66835;HTU21D;53743;51.100;5.874;2022-10-16T05:11:24;14.49;99.77
66835;HTU21D;53743;51.100;5.874;2022-10-16T05:12:24;14.49;99.72
66835;HTU21D;53743;51.100;5.874;2022-10-16T05:13:25;14.49;99.87
66835;HTU21D;53743;51.100;5.874;2022-10-16T05:14:26;14.50;99.83
66835;HTU21D;53743;51.100;5.874;2022-10-16T05:15:27;14.50;99.86
66835;HTU21D;53743;51.100;5.874;2022-10-16T05:16:29;14.50;99.87
66835;HTU21D;53743;51.100;5.874;2022-10-16T05:17:30;14.49;99.78
66835;HTU21D;53743;51.100;5.874;2022-10-16T05:18:31;14.49;99.85
66835;HTU21D;53743;51.100;5.874;2022-10-16T05:19:32;14.49;99.92
66835;HTU21D;53743;51.100;5.874;2022-10-16T05:20:33;14.48;99.72
66835;HTU21D;53743;51.100;5.874;2022-10-16T05:21:33;14.48;99.83
66835;HTU21D;53743;51.100;5.874;2022-10-16T05:22:34;14.48;99.83
66835;HTU21D;53743;51.100;5.874;2022-10-16T05:23:34;14.47;99.81
66835;HTU21D;53743;51.100;5.874;2022-10-16T05:24:35;14.48;99.64
66835;HTU21D;53743;51.100;5.874;2022-10-16T05:25:36;14.45;99.74
66835;HTU21D;53743;51.100;5.874;2022-10-16T05:26:37;14.45;99.93
66835;HTU21D;53743;51.100;5.874;2022-10-16T05:27:38;14.48;99.87
66835;HTU21D;53743;51.100;5.874;2022-10-16T05:28:38;14.44;99.78
66835;HTU21D;53743;51.100;5.874;2022-10-16T05:29:39;14.45;99.87
66835;HTU21D;53743;51.100;5.874;2022-10-16T05:30:40;14.42;99.87
66835;HTU21D;53743;51.100;5.874;2022-10-16T05:31:40;14.43;99.91
66835;HTU21D;53743;51.100;5.874;2022-10-16T05:32:41;14.41;100.01
66835;HTU21D;53743;51.100;5.874;2022-10-16T05:33:46;14.39;100.03
66835;HTU21D;53743;51.100;5.874;2022-10-16T05:34:47;14.37;100.09
66835;HTU21D;53743;51.100;5.874;2022-10-16T05:35:47;14.38;100.05
66835;HTU21D;53743;51.100;5.874;2022-10-16T05:36:48;14.36;100.14
66835;HTU21D;53743;51.100;5.874;2022-10-16T05:37:49;14.34;100.24
66835;HTU21D;53743;51.100;5.874;2022-10-16T05:38:51;14.35;100.21
66835;HTU21D;53743;51.100;5.874;2022-10-16T05:39:52;14.34;100.19
66835;HTU21D;53743;51.100;5.874;2022-10-16T05:40:52;14.33;100.19
66835;HTU21D;53743;51.100;5.874;2022-10-16T05:41:53;14.32;100.26
66835;HTU21D;53743;51.100;5.874;2022-10-16T05:42:55;14.32;100.31
66835;HTU21D;53743;51.100;5.874;2022-10-16T05:43:56;14.30;100.40
66835;HTU21D;53743;51.100;5.874;2022-10-16T05:44:56;14.29;100.35
66835;HTU21D;53743;51.100;5.874;2022-10-16T05:46:04;14.28;100.41
66835;HTU21D;53743;51.100;5.874;2022-10-16T05:47:06;14.24;100.55
66835;HTU21D;53743;51.100;5.874;2022-10-16T05:48:06;14.26;100.65
66835;HTU21D;53743;51.100;5.874;2022-10-16T05:49:07;14.25;100.60
66835;HTU21D;53743;51.100;5.874;2022-10-16T05:50:08;14.24;100.61
66835;HTU21D;53743;51.100;5.874;2022-10-16T05:51:11;14.22;100.66
66835;HTU21D;53743;51.100;5.874;2022-10-16T05:52:14;14.22;100.80
66835;HTU21D;53743;51.100;5.874;2022-10-16T05:53:14;14.22;100.76
66835;HTU21D;53743;51.100;5.874;2022-10-16T05:54:15;14.18;101.44
66835;HTU21D;53743;51.100;5.874;2022-10-16T05:55:17;14.20;101.05
66835;HTU21D;53743;51.100;5.874;2022-10-16T05:56:18;14.19;101.25
66835;HTU21D;53743;51.100;5.874;2022-10-16T05:57:18;14.20;101.15
66835;HTU21D;53743;51.100;5.874;2022-10-16T05:58:19;14.21;101.19
66835;HTU21D;53743;51.100;5.874;2022-10-16T05:59:20;14.20;101.22
66835;HTU21D;53743;51.100;5.874;2022-10-16T06:00:20;14.21;101.22
66835;HTU21D;53743;51.100;5.874;2022-10-16T06:01:21;14.20;101.24
66835;HTU21D;53743;51.100;5.874;2022-10-16T06:02:24;14.22;101.27
66835;HTU21D;53743;51.100;5.874;2022-10-16T06:03:25;14.22;101.21
66835;HTU21D;53743;51.100;5.874;2022-10-16T06:04:26;14.21;101.30
66835;HTU21D;53743;51.100;5.874;2022-10-16T06:05:26;14.23;101.22
66835;HTU21D;53743;51.100;5.874;2022-10-16T06:06:28;14.22;101.26
66835;HTU21D;53743;51.100;5.874;2022-10-16T06:07:34;14.22;101.31
66835;HTU21D;53743;51.100;5.874;2022-10-16T06:08:35;14.21;101.28
66835;HTU21D;53743;51.100;5.874;2022-10-16T06:09:36;14.23;101.19
66835;HTU21D;53743;51.100;5.874;2022-10-16T06:10:37;14.23;101.22
66835;HTU21D;53743;51.100;5.874;2022-10-16T06:11:37;14.24;101.15
66835;HTU21D;53743;51.100;5.874;2022-10-16T06:12:38;14.27;101.19
66835;HTU21D;53743;51.100;5.874;2022-10-16T06:13:39;14.28;101.22
66835;HTU21D;53743;51.100;5.874;2022-10-16T06:14:42;14.29;101.27
66835;HTU21D;53743;51.100;5.874;2022-10-16T06:15:43;14.30;101.37
66835;HTU21D;53743;51.100;5.874;2022-10-16T06:16:44;14.32;101.25
66835;HTU21D;53743;51.100;5.874;2022-10-16T06:17:44;14.35;101.19
66835;HTU21D;53743;51.100;5.874;2022-10-16T06:18:46;14.34;101.17
66835;HTU21D;53743;51.100;5.874;2022-10-16T06:19:47;14.37;101.06
66835;HTU21D;53743;51.100;5.874;2022-10-16T06:20:48;14.37;101.11
66835;HTU21D;53743;51.100;5.874;2022-10-16T06:21:48;14.36;100.98
66835;HTU21D;53743;51.100;5.874;2022-10-16T06:22:49;14.36;101.01
66835;HTU21D;53743;51.100;5.874;2022-10-16T06:23:50;14.37;101.01
66835;HTU21D;53743;51.100;5.874;2022-10-16T06:24:51;14.37;100.85
66835;HTU21D;53743;51.100;5.874;2022-10-16T06:25:52;14.37;100.82
66835;HTU21D;53743;51.100;5.874;2022-10-16T06:26:52;14.37;100.83
66835;HTU21D;53743;51.100;5.874;2022-10-16T06:27:53;14.36;100.83
66835;HTU21D;53743;51.100;5.874;2022-10-16T06:28:55;14.36;100.73
66835;HTU21D;53743;51.100;5.874;2022-10-16T06:29:57;14.36;100.80
66835;HTU21D;53743;51.100;5.874;2022-10-16T06:30:59;14.37;100.79
66835;HTU21D;53743;51.100;5.874;2022-10-16T06:32:00;14.37;100.81
66835;HTU21D;53743;51.100;5.874;2022-10-16T06:33:01;14.37;100.82
66835;HTU21D;53743;51.100;5.874;2022-10-16T06:34:02;14.37;100.79
66835;HTU21D;53743;51.100;5.874;2022-10-16T06:35:05;14.38;100.71
66835;HTU21D;53743;51.100;5.874;2022-10-16T06:36:10;14.38;100.61
66835;HTU21D;53743;51.100;5.874;2022-10-16T06:37:13;14.39;100.49
66835;HTU21D;53743;51.100;5.874;2022-10-16T06:38:13;14.38;100.47
66835;HTU21D;53743;51.100;5.874;2022-10-16T06:39:14;14.39;100.46
66835;HTU21D;53743;51.100;5.874;2022-10-16T06:40:15;14.38;100.58
66835;HTU21D;53743;51.100;5.874;2022-10-16T06:41:18;14.38;100.61
66835;HTU21D;53743;51.100;5.874;2022-10-16T06:42:21;14.37;100.51
66835;HTU21D;53743;51.100;5.874;2022-10-16T06:43:22;14.36;100.60
66835;HTU21D;53743;51.100;5.874;2022-10-16T06:44:22;14.36;100.60
66835;HTU21D;53743;51.100;5.874;2022-10-16T06:45:23;14.37;100.48
66835;HTU21D;53743;51.100;5.874;2022-10-16T06:46:25;14.36;100.45